Bettina K — PBEW — position and weather

sailwx.info

Track history (hours):
 
Tides and Currents Weather Stations Pressure Air Temp Water Temp Dewpoint Dewpoint Depression Visibility Wind Speed Wind Dir Waves Ship Positions

Bettina K

Last reported at 2016-Sep-27 00:34 UTC. Time now 2016-Sep-27 08:44 UTC.
Position N 51°43' E 003°17'.

Length 88 m; draft 5 m.

Type: Cargo ship. MMSI: 244730469.

Date/timePositionNaut miles runAvg speedWind from/ knotsBaromVisibWave heightAir tempDewpointWater temp
2016-Sep-27 00:34N 51°43' E 003°17'31 7.8
2016-Sep-26 20:34N 51°25' E 003°58'7 6.7
2016-Sep-26 19:33N 51°22' E 004°08'12 3.1
2016-Sep-26 15:33N 51°15' E 004°24'0 0.0
2016-Sep-26 13:33N 51°15' E 004°24'0 0.0
2016-Sep-26 11:33N 51°15' E 004°24'0 0.0
2016-Sep-26 08:33N 51°15' E 004°24'0 0.0
2016-Sep-26 02:33N 51°15' E 004°24'0 0.0
2016-Sep-26 01:33N 51°15' E 004°24'0 0.0
2016-Sep-26 00:33N 51°15' E 004°24'0 0.0
2016-Sep-25 21:33N 51°15' E 004°24'0 0.0
2016-Sep-25 17:30N 51°15' E 004°24'0 0.0
2016-Sep-25 16:33N 51°15' E 004°24'0 0.0
2016-Sep-25 15:33N 51°15' E 004°24'0 0.0
2016-Sep-25 14:33N 51°15' E 004°24'0 0.0
2016-Sep-25 12:33N 51°15' E 004°24'3 3.0
2016-Sep-25 11:33N 51°17' E 004°20'4 4.3
2016-Sep-25 10:33N 51°21' E 004°17'4 3.9
2016-Sep-25 09:33N 51°23' E 004°13'15 7.4
2016-Sep-25 07:34N 51°22' E 003°49'3210.7
2016-Sep-25 04:34N 51°21' E 002°58'33 8.3
2016-Sep-25 00:33N 51°12' E 002°07'18 8.9
2016-Sep-24 22:33N 51°03' E 001°43'1010.0
2016-Sep-24 21:33N 50°55' E 001°32'5210.1
2016-Sep-24 16:24N 50°26' E 000°25'2111.4
2016-Sep-24 14:34N 50°20' W 000°07'2411.8
2016-Sep-24 12:33N 50°13' W 000°42'3310.0
2016-Sep-24 09:18N 50°03' W 001°31'74 9.0
2016-Sep-24 01:07N 49°36' W 003°17'910.9
2016-Sep-24 00:18N 49°31' W 003°28'5610.9
2016-Sep-23 19:12N 48°57' W 004°36'1710.4
2016-Sep-23 17:34N 48°47' W 004°57'10 9.7
2016-Sep-23 16:33N 48°41' W 005°09'10 9.1
2016-Sep-23 15:27N 48°34' W 005°19'15 7.8
2016-Sep-23 13:30N 48°19' W 005°23'  
2016-Sep-17 13:21N 48°35' W 005°21'7 9.3
2016-Sep-17 12:33N 48°40' W 005°13'  
Track history (hours):
 
Tides and Currents Weather Stations Pressure Air Temp Water Temp Dewpoint Dewpoint Depression Visibility Wind Speed Wind Dir Waves Ship Positions

Bettina K

Last reported at 2016-Sep-27 00:34 UTC. Time now 2016-Sep-27 08:44 UTC.
Position N 51°43' E 003°17'.

Length 88 m; draft 5 m.

Type: Cargo ship. MMSI: 244730469.

Date/timePositionNaut miles runAvg speedWind from/ knotsBaromVisibWave heightAir tempDewpointWater temp
2016-Sep-27 00:34N 51°43' E 003°17'31 7.8
2016-Sep-26 20:34N 51°25' E 003°58'7 6.7
2016-Sep-26 19:33N 51°22' E 004°08'12 3.1
2016-Sep-26 15:33N 51°15' E 004°24'0 0.0
2016-Sep-26 13:33N 51°15' E 004°24'0 0.0
2016-Sep-26 11:33N 51°15' E 004°24'0 0.0
2016-Sep-26 08:33N 51°15' E 004°24'0 0.0
2016-Sep-26 02:33N 51°15' E 004°24'0 0.0
2016-Sep-26 01:33N 51°15' E 004°24'0 0.0
2016-Sep-26 00:33N 51°15' E 004°24'0 0.0
2016-Sep-25 21:33N 51°15' E 004°24'0 0.0
2016-Sep-25 17:30N 51°15' E 004°24'0 0.0
2016-Sep-25 16:33N 51°15' E 004°24'0 0.0
2016-Sep-25 15:33N 51°15' E 004°24'0 0.0
2016-Sep-25 14:33N 51°15' E 004°24'0 0.0
2016-Sep-25 12:33N 51°15' E 004°24'3 3.0
2016-Sep-25 11:33N 51°17' E 004°20'4 4.3
2016-Sep-25 10:33N 51°21' E 004°17'4 3.9
2016-Sep-25 09:33N 51°23' E 004°13'15 7.4
2016-Sep-25 07:34N 51°22' E 003°49'3210.7
2016-Sep-25 04:34N 51°21' E 002°58'33 8.3
2016-Sep-25 00:33N 51°12' E 002°07'18 8.9
2016-Sep-24 22:33N 51°03' E 001°43'1010.0
2016-Sep-24 21:33N 50°55' E 001°32'5210.1
2016-Sep-24 16:24N 50°26' E 000°25'2111.4
2016-Sep-24 14:34N 50°20' W 000°07'2411.8
2016-Sep-24 12:33N 50°13' W 000°42'3310.0
2016-Sep-24 09:18N 50°03' W 001°31'74 9.0
2016-Sep-24 01:07N 49°36' W 003°17'910.9
2016-Sep-24 00:18N 49°31' W 003°28'5610.9
2016-Sep-23 19:12N 48°57' W 004°36'1710.4
2016-Sep-23 17:34N 48°47' W 004°57'10 9.7
2016-Sep-23 16:33N 48°41' W 005°09'10 9.1
2016-Sep-23 15:27N 48°34' W 005°19'15 7.8
2016-Sep-23 13:30N 48°19' W 005°23'  
2016-Sep-17 13:21N 48°35' W 005°21'7 9.3
2016-Sep-17 12:33N 48°40' W 005°13'  

Dump ship's entire track history